createdAt,value
2023-04-24T00:00:00.758Z,99813.03
2023-04-24T00:02:28.619Z,99818.22
2023-04-24T00:04:56.356Z,99819.06
2023-04-24T00:07:24.192Z,99819.94
2023-04-24T00:09:51.771Z,99811.22
2023-04-24T00:12:19.254Z,99809.47
2023-04-24T00:14:46.875Z,99810.31
2023-04-24T00:17:15.108Z,99817.03
2023-04-24T00:19:42.995Z,99818.88
2023-04-24T00:22:12.047Z,99812.63
2023-04-24T00:24:39.752Z,99814.25
2023-04-24T00:27:07.308Z,99813.31
2023-04-24T00:29:35.804Z,99808.03
2023-04-24T00:32:03.824Z,99809.72
2023-04-24T00:34:33.692Z,99811.41
2023-04-24T00:37:01.371Z,99807.06
2023-04-24T00:39:29.268Z,99820.03
2023-04-24T00:41:57.864Z,99815.59
2023-04-24T00:44:25.884Z,99812.91
2023-04-24T00:46:55.879Z,99817.03
2023-04-24T00:49:23.736Z,99804.91
2023-04-24T00:51:52.378Z,99812.72
2023-04-24T00:54:20.028Z,99818.63
2023-04-24T00:56:48.019Z,99810.66
2023-04-24T00:59:18.601Z,99823.78
2023-04-24T01:01:47.106Z,99816.75
2023-04-24T01:04:16.656Z,99818.44
2023-04-24T01:06:45.543Z,99819.25
2023-04-24T01:09:15.611Z,99822.69
2023-04-24T01:11:44.413Z,99808.75
2023-04-24T01:14:13.649Z,99812.22
2023-04-24T01:16:42.974Z,99819.91
2023-04-24T01:19:12.192Z,99818.13
2023-04-24T01:21:40.979Z,99825.03
2023-04-24T01:24:08.966Z,99817.13
2023-04-24T01:26:36.731Z,99816.16
2023-04-24T01:29:04.549Z,99810.88
2023-04-24T01:31:33.256Z,99800.50
2023-04-24T01:34:01.489Z,99810.88
2023-04-24T01:36:30.877Z,99816.03
2023-04-24T01:38:58.466Z,99811.66
2023-04-24T01:41:28.644Z,99810.84
2023-04-24T01:43:56.359Z,99801.19
2023-04-24T01:46:24.121Z,99811.50
2023-04-24T01:48:53.604Z,99807.13
2023-04-24T01:51:21.620Z,99803.56
2023-04-24T01:53:49.345Z,99800.84
2023-04-24T01:56:16.953Z,99801.75
2023-04-24T01:58:45.044Z,99801.75
2023-04-24T02:01:19.042Z,99792.03
2023-04-24T02:03:49.156Z,99806.72
2023-04-24T02:06:17.792Z,99791.91
2023-04-24T02:08:45.551Z,99802.25
2023-04-24T02:11:13.033Z,99803.06
2023-04-24T02:13:40.732Z,99798.78
2023-04-24T02:16:08.488Z,99801.25
2023-04-24T02:18:56.136Z,99799.50
2023-04-24T02:21:26.420Z,99798.63
2023-04-24T02:23:54.005Z,99798.56
2023-04-24T02:26:21.952Z,99798.63
2023-04-24T02:28:49.791Z,99802.19
2023-04-24T02:31:17.623Z,99808.44
2023-04-24T02:33:45.319Z,99809.53
2023-04-24T02:36:12.973Z,99804.47
2023-04-24T02:38:40.802Z,99812.34
2023-04-24T02:41:08.656Z,99806.38
2023-04-24T02:43:36.298Z,99808.22
2023-04-24T02:46:04.025Z,99816.88
2023-04-24T02:48:31.710Z,99824.69
2023-04-24T02:50:59.336Z,99821.31
2023-04-24T02:53:26.923Z,99823.97
2023-04-24T02:55:54.662Z,99824.13
2023-04-24T02:58:22.452Z,99828.53
2023-04-24T03:00:50.412Z,99826.06
2023-04-24T03:03:18.677Z,99827.84
2023-04-24T03:05:46.858Z,99822.09
2023-04-24T03:08:15.606Z,99818.81
2023-04-24T03:10:45.246Z,99827.72
2023-04-24T03:13:17.838Z,99827.13
2023-04-24T03:15:46.217Z,99826.72
2023-04-24T03:18:14.006Z,99832.25
2023-04-24T03:20:41.701Z,99819.44
2023-04-24T03:23:09.690Z,99828.41
2023-04-24T03:25:38.146Z,99830.19
2023-04-24T03:28:06.494Z,99827.66
2023-04-24T03:30:46.608Z,99830.47
2023-04-24T03:33:15.176Z,99836.03
2023-04-24T03:35:52.414Z,99824.94
2023-04-24T03:38:20.585Z,99835.66
2023-04-24T03:41:11.488Z,99828.06
2023-04-24T03:44:02.052Z,99842.13
2023-04-24T03:46:29.657Z,99838.84
2023-04-24T03:49:00.785Z,99833.00
2023-04-24T03:51:33.217Z,99838.34
2023-04-24T03:54:12.653Z,99842.88
2023-04-24T03:56:41.344Z,99845.66
2023-04-24T03:59:09.693Z,99833.59
2023-04-24T04:01:38.375Z,99838.16
2023-04-24T04:04:14.933Z,99846.09
2023-04-24T04:06:45.143Z,99853.25
2023-04-24T04:09:13.574Z,99844.78
2023-04-24T04:11:41.322Z,99856.22
2023-04-24T04:14:09.202Z,99847.75
2023-04-24T04:16:40.340Z,99847.97
2023-04-24T04:19:09.630Z,99840.41
2023-04-24T04:21:37.461Z,99846.66
2023-04-24T04:24:18.594Z,99839.84
2023-04-24T04:26:48.196Z,99849.59
2023-04-24T04:29:29.719Z,99852.38
2023-04-24T04:31:57.715Z,99857.69
2023-04-24T04:34:25.408Z,99852.72
2023-04-24T04:36:53.767Z,99842.53
2023-04-24T04:39:39.981Z,99850.50
2023-04-24T04:42:11.740Z,99851.53
2023-04-24T04:44:43.833Z,99862.97
2023-04-24T04:47:17.278Z,99852.69
2023-04-24T04:49:45.502Z,99849.28
2023-04-24T04:52:26.255Z,99848.69
2023-04-24T04:55:00.580Z,99843.50
2023-04-24T04:57:42.435Z,99850.50
2023-04-24T05:00:11.689Z,99853.19
2023-04-24T05:02:47.523Z,99855.88
2023-04-24T05:05:18.611Z,99849.81
2023-04-24T05:07:46.915Z,99848.13
2023-04-24T05:10:14.539Z,99853.38
2023-04-24T05:12:44.208Z,99855.16
2023-04-24T05:15:13.400Z,99849.97
2023-04-24T05:17:41.699Z,99859.53
2023-04-24T05:20:10.930Z,99856.91
2023-04-24T05:22:39.631Z,99841.28
2023-04-24T05:25:08.804Z,99849.94
2023-04-24T05:27:48.057Z,99842.09
2023-04-24T05:30:18.314Z,99847.25
2023-04-24T05:32:46.168Z,99849.00
2023-04-24T05:35:14.880Z,99861.97
2023-04-24T05:37:42.554Z,99845.41
2023-04-24T05:40:12.236Z,99845.34
2023-04-24T05:42:40.079Z,99845.22
2023-04-24T05:45:08.428Z,99849.53
2023-04-24T05:47:36.709Z,99845.00
2023-04-24T05:50:04.588Z,99843.16
2023-04-24T05:52:33.281Z,99837.78
2023-04-24T05:55:04.477Z,99833.34
2023-04-24T05:57:34.872Z,99830.72
2023-04-24T06:00:05.434Z,99840.22
2023-04-24T06:02:41.800Z,99828.72
2023-04-24T06:05:13.185Z,99831.25
2023-04-24T06:07:41.533Z,99837.22
2023-04-24T06:10:10.760Z,99825.72
2023-04-24T06:12:42.934Z,99836.00
2023-04-24T06:15:16.720Z,99831.41
2023-04-24T06:17:54.245Z,99832.19
2023-04-24T06:20:22.414Z,99834.72
2023-04-24T06:22:50.154Z,99826.75
2023-04-24T06:25:17.830Z,99827.50
2023-04-24T06:27:47.340Z,99831.44
2023-04-24T06:30:15.104Z,99830.97
2023-04-24T06:32:42.690Z,99822.44
2023-04-24T06:35:12.609Z,99832.66
2023-04-24T06:37:41.467Z,99839.16
2023-04-24T06:40:09.752Z,99837.13
2023-04-24T06:42:37.818Z,99826.94
2023-04-24T06:45:07.008Z,99838.94
2023-04-24T06:47:36.237Z,99833.63
2023-04-24T06:50:04.178Z,99830.91
2023-04-24T06:52:35.237Z,99845.16
2023-04-24T06:55:04.347Z,99852.22
2023-04-24T06:57:33.914Z,99850.09
2023-04-24T07:00:01.437Z,99846.41
2023-04-24T07:02:33.793Z,99833.75
2023-04-24T07:05:02.403Z,99840.81
2023-04-24T07:07:32.395Z,99833.56
2023-04-24T07:10:00.290Z,99846.28
2023-04-24T07:12:28.131Z,99838.84
2023-04-24T07:14:55.953Z,99839.19
2023-04-24T07:17:23.544Z,99844.34
2023-04-24T07:19:51.145Z,99851.59
2023-04-24T07:22:18.821Z,99839.16
2023-04-24T07:24:46.781Z,99839.25
2023-04-24T07:27:16.281Z,99847.19
2023-04-24T07:29:44.761Z,99844.34
2023-04-24T07:32:12.732Z,99844.16
2023-04-24T07:34:40.411Z,99848.03
2023-04-24T07:37:08.035Z,99851.66
2023-04-24T07:39:35.627Z,99845.63
2023-04-24T07:42:04.817Z,99847.41
2023-04-24T07:44:33.242Z,99854.66
2023-04-24T07:47:01.044Z,99858.28
2023-04-24T07:49:29.030Z,99835.69
2023-04-24T07:51:56.668Z,99832.63
2023-04-24T07:54:24.335Z,99840.50
2023-04-24T07:56:52.108Z,99833.72
2023-04-24T07:59:19.678Z,99825.03
2023-04-24T08:01:47.440Z,99819.59
2023-04-24T08:04:15.631Z,99819.63
2023-04-24T08:06:43.626Z,99834.56
2023-04-24T08:09:11.314Z,99827.13
2023-04-24T08:11:38.759Z,99827.72
2023-04-24T08:14:06.666Z,99826.38
2023-04-24T08:16:34.662Z,99838.44
2023-04-24T08:19:02.709Z,99827.63
2023-04-24T08:21:30.222Z,99826.63
2023-04-24T08:23:57.820Z,99825.53
2023-04-24T08:26:25.854Z,99812.22
2023-04-24T08:28:53.465Z,99814.50
2023-04-24T08:31:21.301Z,99811.38
2023-04-24T08:33:48.791Z,99808.50
2023-04-24T08:36:16.351Z,99813.69
2023-04-24T08:38:43.937Z,99812.22
2023-04-24T08:41:18.540Z,99807.66
2023-04-24T08:43:54.696Z,99812.53
2023-04-24T08:46:27.179Z,99792.59
2023-04-24T08:48:55.164Z,99808.06
2023-04-24T08:51:23.789Z,99796.50
2023-04-24T08:53:54.817Z,99803.09
2023-04-24T08:56:24.489Z,99803.97
2023-04-24T08:58:53.963Z,99785.63
2023-04-24T09:01:22.146Z,99777.03
2023-04-24T09:03:50.170Z,99785.44
2023-04-24T09:06:19.230Z,99788.72
2023-04-24T09:08:48.312Z,99795.94
2023-04-24T09:11:16.122Z,99796.44
2023-04-24T09:13:44.693Z,99790.41
2023-04-24T09:16:12.893Z,99799.94
2023-04-24T09:18:40.507Z,99785.25
2023-04-24T09:21:09.912Z,99789.63
2023-04-24T09:23:37.556Z,99776.41
2023-04-24T09:26:06.195Z,99780.56
2023-04-24T09:28:37.921Z,99776.78
2023-04-24T09:31:05.494Z,99784.03
2023-04-24T09:33:33.257Z,99771.00
2023-04-24T09:36:01.540Z,99776.06
2023-04-24T09:38:39.662Z,99763.03
2023-04-24T09:41:09.364Z,99761.97
2023-04-24T09:43:37.153Z,99745.81
2023-04-24T09:46:09.794Z,99752.09
2023-04-24T09:48:38.909Z,99761.09
2023-04-24T09:51:12.604Z,99746.69
2023-04-24T09:53:43.143Z,99747.72
2023-04-24T09:56:14.856Z,99753.81
2023-04-24T09:58:42.593Z,99758.56
2023-04-24T10:01:10.276Z,99747.47
2023-04-24T10:03:37.879Z,99752.75
2023-04-24T10:06:10.372Z,99744.56
2023-04-24T10:08:38.693Z,99734.19
2023-04-24T10:11:07.341Z,99733.53
2023-04-24T10:13:35.823Z,99742.81
2023-04-24T10:16:05.182Z,99731.34
2023-04-24T10:18:33.891Z,99752.38
2023-04-24T10:21:02.394Z,99748.16
2023-04-24T10:23:31.385Z,99736.69
2023-04-24T10:26:01.436Z,99735.69
2023-04-24T10:28:32.830Z,99720.69
2023-04-24T10:31:01.482Z,99724.78
2023-04-24T10:33:31.742Z,99717.56
2023-04-24T10:35:59.860Z,99712.88
2023-04-24T10:38:30.744Z,99720.41
2023-04-24T10:41:09.290Z,99718.28
2023-04-24T10:43:37.135Z,99718.59
2023-04-24T10:46:07.043Z,99711.81
2023-04-24T10:48:35.665Z,99713.31
2023-04-24T10:51:03.771Z,99717.44
2023-04-24T10:53:32.251Z,99717.66
2023-04-24T10:56:05.580Z,99719.38
2023-04-24T10:58:54.864Z,99713.63
2023-04-24T11:01:29.076Z,99717.44
2023-04-24T11:03:59.436Z,99706.31
2023-04-24T11:06:38.126Z,99715.66
2023-04-24T11:09:08.448Z,99706.22
2023-04-24T11:11:41.576Z,99704.56
2023-04-24T11:14:09.595Z,99692.78
2023-04-24T11:16:45.688Z,99694.00
2023-04-24T11:19:16.525Z,99705.75
2023-04-24T11:22:01.441Z,99698.31
2023-04-24T11:24:40.183Z,99704.50
2023-04-24T11:27:20.990Z,99705.97
2023-04-24T11:29:58.357Z,99689.00
2023-04-24T11:32:43.472Z,99688.16
2023-04-24T11:35:23.329Z,99694.28
2023-04-24T11:40:26.759Z,99664.84
2023-04-24T11:42:56.681Z,99670.38
2023-04-24T11:45:29.700Z,99659.63
2023-04-24T11:47:58.160Z,99664.38
2023-04-24T11:50:28.827Z,99654.03
2023-04-24T11:52:57.190Z,99654.50
2023-04-24T11:55:27.974Z,99644.59
2023-04-24T11:58:00.493Z,99652.56
2023-04-24T12:00:30.446Z,99649.59
2023-04-24T12:03:12.647Z,99643.69
2023-04-24T12:05:41.815Z,99644.72
2023-04-24T12:08:10.548Z,99636.84
2023-04-24T12:10:38.534Z,99632.75
2023-04-24T12:13:06.591Z,99634.66
2023-04-24T12:15:34.320Z,99631.84
2023-04-24T12:18:02.113Z,99633.22
2023-04-24T12:20:32.664Z,99640.78
2023-04-24T12:23:02.064Z,99627.09
2023-04-24T12:25:32.095Z,99622.09
2023-04-24T12:28:05.988Z,99639.06
2023-04-24T12:30:38.411Z,99629.66
2023-04-24T12:33:06.238Z,99625.31
2023-04-24T12:35:35.063Z,99620.53
2023-04-24T12:38:15.759Z,99625.47
2023-04-24T12:40:44.739Z,99623.59
2023-04-24T12:43:20.300Z,99623.28
2023-04-24T12:45:51.027Z,99618.13
2023-04-24T12:48:18.795Z,99616.19
2023-04-24T12:50:47.461Z,99626.75
2023-04-24T12:53:21.836Z,99618.69
2023-04-24T12:55:54.726Z,99612.00
2023-04-24T12:58:22.992Z,99613.25
2023-04-24T13:00:50.882Z,99615.00
2023-04-24T13:03:19.297Z,99609.06
2023-04-24T13:05:47.556Z,99609.19
2023-04-24T13:08:15.229Z,99603.88
2023-04-24T13:10:43.089Z,99612.19
2023-04-24T13:13:10.772Z,99608.81
2023-04-24T13:15:38.365Z,99601.00
2023-04-24T13:18:06.178Z,99603.66
2023-04-24T13:20:33.890Z,99605.28
2023-04-24T13:23:01.763Z,99605.97
2023-04-24T13:25:32.543Z,99601.97
2023-04-24T13:28:02.552Z,99608.50
2023-04-24T13:30:30.388Z,99604.56
2023-04-24T13:32:58.152Z,99591.97
2023-04-24T13:35:25.908Z,99587.91
2023-04-24T13:37:53.435Z,99603.63
2023-04-24T13:40:21.091Z,99592.34
2023-04-24T13:42:48.799Z,99584.47
2023-04-24T13:45:25.245Z,99594.22
2023-04-24T13:47:54.676Z,99584.69
2023-04-24T13:50:22.901Z,99584.78
2023-04-24T13:52:50.494Z,99574.41
2023-04-24T13:55:21.150Z,99577.16
2023-04-24T13:57:50.157Z,99578.13
2023-04-24T14:00:18.447Z,99575.69
2023-04-24T14:02:46.212Z,99574.03
2023-04-24T14:05:16.276Z,99581.03
2023-04-24T14:07:43.733Z,99564.59
2023-04-24T14:10:11.657Z,99570.78
2023-04-24T14:12:39.377Z,99560.31
2023-04-24T14:15:07.584Z,99560.47
2023-04-24T14:17:35.351Z,99553.56
2023-04-24T14:20:04.914Z,99552.66
2023-04-24T14:22:34.167Z,99556.34
2023-04-24T14:25:01.832Z,99544.31
2023-04-24T14:27:31.593Z,99548.72
2023-04-24T14:29:59.337Z,99553.16
2023-04-24T14:32:27.140Z,99560.25
2023-04-24T14:34:54.760Z,99549.09
2023-04-24T14:37:22.384Z,99556.16
2023-04-24T14:40:00.630Z,99548.47
2023-04-24T14:42:37.527Z,99560.63
2023-04-24T14:45:05.689Z,99558.06
2023-04-24T14:47:33.561Z,99550.31
2023-04-24T14:50:01.466Z,99551.25
2023-04-24T14:52:31.591Z,99555.59
2023-04-24T14:54:59.221Z,99544.34
2023-04-24T14:57:27.352Z,99549.56
2023-04-24T14:59:54.862Z,99548.75
2023-04-24T15:02:22.741Z,99545.28
2023-04-24T15:04:50.635Z,99541.88
2023-04-24T15:07:18.542Z,99549.72
2023-04-24T15:09:48.165Z,99546.28
2023-04-24T15:12:15.983Z,99553.28
2023-04-24T15:14:43.579Z,99549.78
2023-04-24T15:17:11.083Z,99550.63
2023-04-24T15:19:39.006Z,99540.22
2023-04-24T15:22:06.551Z,99539.38
2023-04-24T15:24:34.240Z,99542.00
2023-04-24T15:27:02.881Z,99542.03
2023-04-24T15:29:30.864Z,99549.84
2023-04-24T15:31:58.831Z,99546.34
2023-04-24T15:34:26.481Z,99548.94
2023-04-24T15:36:53.961Z,99531.66
2023-04-24T15:39:26.684Z,99533.41
2023-04-24T15:41:54.459Z,99540.31
2023-04-24T15:44:22.892Z,99534.28
2023-04-24T15:46:52.426Z,99540.38
2023-04-24T15:49:20.078Z,99527.38
2023-04-24T15:51:47.755Z,99526.47
2023-04-24T15:54:15.420Z,99531.72
2023-04-24T15:56:44.737Z,99537.88
2023-04-24T15:59:12.390Z,99539.63
2023-04-24T16:01:40.463Z,99529.19
2023-04-24T16:04:08.586Z,99543.16
2023-04-24T16:06:37.000Z,99539.66
2023-04-24T16:09:04.533Z,99541.44
2023-04-24T16:11:34.130Z,99542.31
2023-04-24T16:14:02.071Z,99538.88
2023-04-24T16:16:29.605Z,99536.28
2023-04-24T16:18:57.205Z,99536.34
2023-04-24T16:21:26.349Z,99540.69
2023-04-24T16:23:53.942Z,99544.16
2023-04-24T16:26:21.741Z,99536.38
2023-04-24T16:28:50.572Z,99548.53
2023-04-24T16:31:18.397Z,99548.53
2023-04-24T16:33:46.013Z,99548.53
2023-04-24T16:36:13.716Z,99543.38
2023-04-24T16:38:41.548Z,99545.13
2023-04-24T16:41:09.291Z,99547.75
2023-04-24T16:43:37.037Z,99551.22
2023-04-24T16:46:04.760Z,99551.25
2023-04-24T16:48:33.808Z,99555.59
2023-04-24T16:51:01.710Z,99559.91
2023-04-24T16:53:29.396Z,99552.13
2023-04-24T16:55:57.203Z,99559.94
2023-04-24T16:58:25.130Z,99552.13
2023-04-24T17:00:52.731Z,99558.22
2023-04-24T17:03:23.461Z,99565.16
2023-04-24T17:05:51.436Z,99560.81
2023-04-24T17:08:19.537Z,99566.88
2023-04-24T17:10:47.069Z,99563.38
2023-04-24T17:13:15.459Z,99572.06
2023-04-24T17:15:43.219Z,99569.44
2023-04-24T17:18:11.463Z,99572.91
2023-04-24T17:20:39.539Z,99579.84
2023-04-24T17:23:07.414Z,99578.97
2023-04-24T17:25:35.056Z,99583.31
2023-04-24T17:28:02.626Z,99582.44
2023-04-24T17:30:30.338Z,99575.47
2023-04-24T17:32:57.895Z,99576.34
2023-04-24T17:35:25.717Z,99577.22
2023-04-24T17:37:53.267Z,99586.75
2023-04-24T17:40:20.968Z,99585.00
2023-04-24T17:42:48.624Z,99596.28
2023-04-24T17:45:16.596Z,99587.59
2023-04-24T17:47:44.211Z,99593.66
2023-04-24T17:50:12.629Z,99604.91
2023-04-24T17:52:40.198Z,99597.97
2023-04-24T17:55:08.311Z,99595.34
2023-04-24T17:57:35.942Z,99597.09
2023-04-24T18:00:04.449Z,99607.50
2023-04-24T18:02:36.864Z,99598.78
2023-04-24T18:05:04.805Z,99604.91
2023-04-24T18:07:33.879Z,99604.88
2023-04-24T18:10:01.433Z,99593.59
2023-04-24T18:12:31.395Z,99604.00
2023-04-24T18:15:13.029Z,99608.31
2023-04-24T18:17:42.251Z,99602.25
2023-04-24T18:20:10.150Z,99605.72
2023-04-24T18:22:38.138Z,99613.53
2023-04-24T18:25:06.249Z,99605.72
2023-04-24T18:27:34.125Z,99604.84
2023-04-24T18:30:03.216Z,99605.69
2023-04-24T18:32:35.355Z,99610.03
2023-04-24T18:35:04.111Z,99603.97
2023-04-24T18:37:35.007Z,99613.53
2023-04-24T18:40:03.848Z,99606.59
2023-04-24T18:42:32.482Z,99610.06
2023-04-24T18:45:01.972Z,99605.72
2023-04-24T18:47:34.376Z,99599.66
2023-04-24T18:50:02.116Z,99606.63
2023-04-24T18:52:34.603Z,99609.22
2023-04-24T18:55:04.218Z,99614.44
2023-04-24T18:57:33.837Z,99610.06
2023-04-24T19:00:01.598Z,99612.66
2023-04-24T19:02:35.531Z,99618.72
2023-04-24T19:05:03.484Z,99620.44
2023-04-24T19:07:34.349Z,99610.84
2023-04-24T19:10:02.101Z,99623.78
2023-04-24T19:12:32.298Z,99617.69
2023-04-24T19:15:00.402Z,99615.09
2023-04-24T19:17:28.052Z,99617.66
2023-04-24T19:19:55.593Z,99613.28
2023-04-24T19:22:24.535Z,99615.88
2023-04-24T19:24:53.820Z,99619.34
2023-04-24T19:27:21.448Z,99615.84
2023-04-24T19:29:48.944Z,99623.63
2023-04-24T19:32:17.001Z,99621.84
2023-04-24T19:34:45.104Z,99624.44
2023-04-24T19:37:13.612Z,99630.50
2023-04-24T19:39:41.698Z,99624.44
2023-04-24T19:42:09.751Z,99624.44
2023-04-24T19:44:37.706Z,99624.44
2023-04-24T19:47:05.594Z,99620.94
2023-04-24T19:49:33.456Z,99623.53
2023-04-24T19:52:01.366Z,99624.44
2023-04-24T19:54:29.849Z,99631.31
2023-04-24T19:56:58.400Z,99625.25
2023-04-24T19:59:26.775Z,99624.34
2023-04-24T20:01:55.318Z,99622.59
2023-04-24T20:04:23.595Z,99619.09
2023-04-24T20:06:51.479Z,99613.91
2023-04-24T20:09:19.354Z,99623.38
2023-04-24T20:11:50.290Z,99619.84
2023-04-24T20:14:18.249Z,99621.56
2023-04-24T20:16:46.013Z,99626.69
2023-04-24T20:19:14.174Z,99625.78
2023-04-24T20:21:41.875Z,99619.66
2023-04-24T20:24:10.878Z,99616.16
2023-04-24T20:26:38.826Z,99623.00
2023-04-24T20:29:07.051Z,99627.41
2023-04-24T20:31:35.529Z,99624.72
2023-04-24T20:34:03.776Z,99632.50
2023-04-24T20:36:31.322Z,99626.38
2023-04-24T20:38:59.668Z,99628.03
2023-04-24T20:41:27.667Z,99641.78
2023-04-24T20:43:55.425Z,99634.88
2023-04-24T20:46:23.001Z,99636.53
2023-04-24T20:48:50.832Z,99638.25
2023-04-24T20:51:19.742Z,99641.63
2023-04-24T20:53:49.546Z,99641.53
2023-04-24T20:56:17.430Z,99642.34
2023-04-24T20:58:48.487Z,99636.25
2023-04-24T21:01:16.690Z,99636.25
2023-04-24T21:03:44.625Z,99627.56
2023-04-24T21:06:13.790Z,99632.69
2023-04-24T21:08:41.669Z,99626.69
2023-04-24T21:11:09.466Z,99637.94
2023-04-24T21:13:36.988Z,99628.31
2023-04-24T21:16:04.593Z,99641.28
2023-04-24T21:18:33.016Z,99644.66
2023-04-24T21:21:00.606Z,99634.25
2023-04-24T21:23:28.222Z,99625.53
2023-04-24T21:25:55.725Z,99631.50
2023-04-24T21:28:25.404Z,99625.34
2023-04-24T21:30:53.074Z,99635.69
2023-04-24T21:33:20.734Z,99633.03
2023-04-24T21:35:48.401Z,99638.13
2023-04-24T21:38:16.012Z,99631.97
2023-04-24T21:40:43.619Z,99638.91
2023-04-24T21:43:12.322Z,99625.81
2023-04-24T21:45:39.995Z,99639.56
2023-04-24T21:48:07.630Z,99637.78
2023-04-24T21:50:35.398Z,99635.13
2023-04-24T21:53:02.979Z,99622.94
2023-04-24T21:55:30.664Z,99630.69
2023-04-24T21:57:58.286Z,99627.09
2023-04-24T22:00:25.752Z,99629.72
2023-04-24T22:02:53.498Z,99626.28
2023-04-24T22:05:21.113Z,99624.53
2023-04-24T22:07:50.627Z,99620.22
2023-04-24T22:10:18.624Z,99609.09
2023-04-24T22:12:47.492Z,99616.91
2023-04-24T22:15:15.039Z,99609.97
2023-04-24T22:17:43.600Z,99612.59
2023-04-24T22:20:11.413Z,99615.13
2023-04-24T22:22:38.996Z,99616.03
2023-04-24T22:25:07.236Z,99611.81
2023-04-24T22:27:35.716Z,99610.97
2023-04-24T22:30:03.941Z,99605.69
2023-04-24T22:32:34.548Z,99614.31
2023-04-24T22:35:02.283Z,99608.25
2023-04-24T22:37:32.663Z,99610.75
2023-04-24T22:40:01.413Z,99596.88
2023-04-24T22:42:32.176Z,99610.63
2023-04-24T22:44:59.878Z,99601.84
2023-04-24T22:47:27.529Z,99606.19
2023-04-24T22:49:55.252Z,99608.75
2023-04-24T22:52:22.688Z,99617.47
2023-04-24T22:54:50.793Z,99618.34
2023-04-24T22:57:18.371Z,99613.97
2023-04-24T22:59:45.943Z,99614.91
2023-04-24T23:02:13.805Z,99613.16
2023-04-24T23:04:41.425Z,99604.53
2023-04-24T23:07:08.963Z,99612.31
2023-04-24T23:09:36.584Z,99610.56
2023-04-24T23:12:04.400Z,99612.38
2023-04-24T23:14:32.152Z,99614.19
2023-04-24T23:16:59.755Z,99608.94
2023-04-24T23:19:27.428Z,99616.75
2023-04-24T23:21:55.143Z,99602.94
2023-04-24T23:24:22.704Z,99610.81
2023-04-24T23:26:50.186Z,99609.91
2023-04-24T23:29:17.746Z,99617.75
2023-04-24T23:31:45.266Z,99617.75
2023-04-24T23:34:12.750Z,99615.16
2023-04-24T23:36:40.270Z,99610.06
2023-04-24T23:39:08.041Z,99618.63
2023-04-24T23:41:35.796Z,99601.25
2023-04-24T23:44:03.254Z,99610.75
2023-04-24T23:46:31.425Z,99614.16
2023-04-24T23:48:58.927Z,99613.31
2023-04-24T23:51:26.694Z,99615.91
2023-04-24T23:53:54.268Z,99610.75
2023-04-24T23:56:24.501Z,99616.75
2023-04-24T23:58:54.630Z,99620.19
